Akademic — LZDA — position and weather

sailwx.info

Track history (hours):
 
Tides and Currents Weather Stations Pressure Air Temp Water Temp Dewpoint Dewpoint Depression Visibility Wind Speed Wind Dir Waves Ship Positions

Oceanographic research ship Akademic (Bulgaria)

Detailed information on ship capabilities available from University of Delaware's Ocean Information Center.

Last reported at 2018-Nov-03 04:37 UTC. Time now 2018-Dec-13 00:45 UTC.
Position N 43°22' E 028°21'.
Warning: this ship's position is 39 days out of date.

Length 55 m; draft 4.8 m.

Type: Other ship. MMSI: 207038000.

Date/timePositionNaut miles runAvg speedWind from/ knotsBaromVisibWave heightAir tempDewpointWater temp
2018-Nov-03 04:37N 43°22' E 028°21'0 0.0
2018-Nov-03 02:55N 43°22' E 028°21'0 0.0
2018-Nov-03 02:07N 43°22' E 028°21'0 0.0
2018-Nov-03 01:19N 43°22' E 028°21'0 0.0
2018-Nov-03 00:19N 43°22' E 028°21'0 0.0
2018-Nov-02 23:49N 43°22' E 028°21'0 0.0
2018-Nov-02 23:01N 43°22' E 028°21'0 0.0
2018-Nov-02 20:16N 43°22' E 028°21'0 0.1
2018-Nov-02 19:44N 43°22' E 028°21'0 1.6
2018-Nov-02 19:27N 43°22' E 028°21'6 6.7
2018-Nov-02 18:33N 43°16' E 028°17'0 6.6
2018-Nov-02 18:30N 43°16' E 028°17'4 6.5
2018-Nov-02 17:49N 43°12' E 028°14'2 6.4
2018-Nov-02 17:30N 43°11' E 028°12'3 6.5
2018-Nov-02 17:01N 43°08' E 028°10'0 6.7
2018-Nov-02 17:00N 43°08' E 028°10'3 6.5
2018-Nov-02 16:30N 43°05' E 028°08'3 6.4
2018-Nov-02 16:03N 43°02' E 028°06'0 6.4
2018-Nov-02 16:00N 43°02' E 028°06'8 6.4
2018-Nov-02 14:43N 42°55' E 028°00'4 6.2
2018-Nov-02 14:05N 42°51' E 027°59'2 6.3
2018-Nov-02 13:45N 42°49' E 027°58'11 1.1
2018-Nov-02 03:59N 42°41' E 027°48'12 0.9
2018-Nov-01 14:54N 42°51' E 027°57'6 6.5
2018-Nov-01 14:02N 42°56' E 027°56'0 7.3
2018-Nov-01 13:59N 42°57' E 027°56'  
Track history (hours):
 
Tides and Currents Weather Stations Pressure Air Temp Water Temp Dewpoint Dewpoint Depression Visibility Wind Speed Wind Dir Waves Ship Positions

Oceanographic research ship Akademic (Bulgaria)

Detailed information on ship capabilities available from University of Delaware's Ocean Information Center.

Last reported at 2018-Nov-03 04:37 UTC. Time now 2018-Dec-13 00:45 UTC.
Position N 43°22' E 028°21'.
Warning: this ship's position is 39 days out of date.

Length 55 m; draft 4.8 m.

Type: Other ship. MMSI: 207038000.

Date/timePositionNaut miles runAvg speedWind from/ knotsBaromVisibWave heightAir tempDewpointWater temp
2018-Nov-03 04:37N 43°22' E 028°21'0 0.0
2018-Nov-03 02:55N 43°22' E 028°21'0 0.0
2018-Nov-03 02:07N 43°22' E 028°21'0 0.0
2018-Nov-03 01:19N 43°22' E 028°21'0 0.0
2018-Nov-03 00:19N 43°22' E 028°21'0 0.0
2018-Nov-02 23:49N 43°22' E 028°21'0 0.0
2018-Nov-02 23:01N 43°22' E 028°21'0 0.0
2018-Nov-02 20:16N 43°22' E 028°21'0 0.1
2018-Nov-02 19:44N 43°22' E 028°21'0 1.6
2018-Nov-02 19:27N 43°22' E 028°21'6 6.7
2018-Nov-02 18:33N 43°16' E 028°17'0 6.6
2018-Nov-02 18:30N 43°16' E 028°17'4 6.5
2018-Nov-02 17:49N 43°12' E 028°14'2 6.4
2018-Nov-02 17:30N 43°11' E 028°12'3 6.5
2018-Nov-02 17:01N 43°08' E 028°10'0 6.7
2018-Nov-02 17:00N 43°08' E 028°10'3 6.5
2018-Nov-02 16:30N 43°05' E 028°08'3 6.4
2018-Nov-02 16:03N 43°02' E 028°06'0 6.4
2018-Nov-02 16:00N 43°02' E 028°06'8 6.4
2018-Nov-02 14:43N 42°55' E 028°00'4 6.2
2018-Nov-02 14:05N 42°51' E 027°59'2 6.3
2018-Nov-02 13:45N 42°49' E 027°58'11 1.1
2018-Nov-02 03:59N 42°41' E 027°48'12 0.9
2018-Nov-01 14:54N 42°51' E 027°57'6 6.5
2018-Nov-01 14:02N 42°56' E 027°56'0 7.3
2018-Nov-01 13:59N 42°57' E 027°56'  

Dump ship's entire track history